sensor_id;sensor_type;location;lat;lon;timestamp;P1;durP1;ratioP1;P2;durP2;ratioP2
69979;SDS011;57318;56.232;43.944;2023-04-08T00:01:53;4.13;;;2.03;;
69979;SDS011;57318;56.232;43.944;2023-04-08T00:04:19;3.67;;;2.03;;
69979;SDS011;57318;56.232;43.944;2023-04-08T00:06:45;3.87;;;2.37;;
69979;SDS011;57318;56.232;43.944;2023-04-08T00:09:10;5.10;;;2.73;;
69979;SDS011;57318;56.232;43.944;2023-04-08T00:11:36;6.77;;;2.53;;
69979;SDS011;57318;56.232;43.944;2023-04-08T00:14:02;5.23;;;2.80;;
69979;SDS011;57318;56.232;43.944;2023-04-08T00:16:28;6.47;;;2.95;;
69979;SDS011;57318;56.232;43.944;2023-04-08T00:18:54;5.67;;;2.87;;
69979;SDS011;57318;56.232;43.944;2023-04-08T00:21:20;5.53;;;2.85;;
69979;SDS011;57318;56.232;43.944;2023-04-08T00:26:13;4.68;;;2.50;;
69979;SDS011;57318;56.232;43.944;2023-04-08T00:28:38;5.13;;;2.27;;
69979;SDS011;57318;56.232;43.944;2023-04-08T00:31:05;8.13;;;2.95;;
69979;SDS011;57318;56.232;43.944;2023-04-08T00:33:30;6.00;;;2.53;;
69979;SDS011;57318;56.232;43.944;2023-04-08T00:35:56;4.47;;;2.33;;
69979;SDS011;57318;56.232;43.944;2023-04-08T00:38:22;4.47;;;2.47;;
69979;SDS011;57318;56.232;43.944;2023-04-08T00:40:48;6.97;;;2.63;;
69979;SDS011;57318;56.232;43.944;2023-04-08T00:43:13;3.47;;;2.20;;
69979;SDS011;57318;56.232;43.944;2023-04-08T00:45:40;4.30;;;2.70;;
69979;SDS011;57318;56.232;43.944;2023-04-08T00:48:06;5.80;;;2.43;;
69979;SDS011;57318;56.232;43.944;2023-04-08T00:50:32;8.03;;;2.47;;
69979;SDS011;57318;56.232;43.944;2023-04-08T00:52:57;4.83;;;2.67;;
69979;SDS011;57318;56.232;43.944;2023-04-08T00:55:23;6.53;;;2.77;;
69979;SDS011;57318;56.232;43.944;2023-04-08T00:57:49;4.73;;;2.60;;
69979;SDS011;57318;56.232;43.944;2023-04-08T01:00:15;4.20;;;2.27;;
69979;SDS011;57318;56.232;43.944;2023-04-08T01:02:56;4.30;;;2.33;;
69979;SDS011;57318;56.232;43.944;2023-04-08T01:08:30;6.68;;;2.65;;
69979;SDS011;57318;56.232;43.944;2023-04-08T01:11:00;4.20;;;2.65;;
69979;SDS011;57318;56.232;43.944;2023-04-08T01:13:29;4.70;;;2.30;;
69979;SDS011;57318;56.232;43.944;2023-04-08T01:15:59;6.95;;;3.20;;
69979;SDS011;57318;56.232;43.944;2023-04-08T01:18:25;5.45;;;2.58;;
69979;SDS011;57318;56.232;43.944;2023-04-08T01:20:51;5.13;;;2.28;;
69979;SDS011;57318;56.232;43.944;2023-04-08T01:23:22;5.82;;;2.47;;
69979;SDS011;57318;56.232;43.944;2023-04-08T01:25:57;4.32;;;2.40;;
69979;SDS011;57318;56.232;43.944;2023-04-08T01:28:24;5.13;;;2.50;;
69979;SDS011;57318;56.232;43.944;2023-04-08T01:30:52;4.45;;;2.50;;
69979;SDS011;57318;56.232;43.944;2023-04-08T01:33:21;3.88;;;2.53;;
69979;SDS011;57318;56.232;43.944;2023-04-08T01:35:47;8.07;;;2.60;;
69979;SDS011;57318;56.232;43.944;2023-04-08T01:38:16;4.20;;;2.30;;
69979;SDS011;57318;56.232;43.944;2023-04-08T01:40:44;4.32;;;2.13;;
69979;SDS011;57318;56.232;43.944;2023-04-08T01:43:12;5.40;;;2.85;;
69979;SDS011;57318;56.232;43.944;2023-04-08T01:45:41;3.63;;;2.30;;
69979;SDS011;57318;56.232;43.944;2023-04-08T01:48:11;3.47;;;2.28;;
69979;SDS011;57318;56.232;43.944;2023-04-08T01:50:38;6.05;;;2.45;;
69979;SDS011;57318;56.232;43.944;2023-04-08T01:53:05;5.03;;;2.20;;
69979;SDS011;57318;56.232;43.944;2023-04-08T01:55:35;3.42;;;2.20;;
69979;SDS011;57318;56.232;43.944;2023-04-08T01:58:03;4.03;;;2.15;;
69979;SDS011;57318;56.232;43.944;2023-04-08T02:00:31;4.85;;;2.60;;
69979;SDS011;57318;56.232;43.944;2023-04-08T02:02:59;4.30;;;2.00;;
69979;SDS011;57318;56.232;43.944;2023-04-08T02:05:25;5.57;;;2.47;;
69979;SDS011;57318;56.232;43.944;2023-04-08T02:07:52;5.40;;;2.40;;
69979;SDS011;57318;56.232;43.944;2023-04-08T02:10:17;4.70;;;2.57;;
69979;SDS011;57318;56.232;43.944;2023-04-08T02:12:43;5.47;;;2.90;;
69979;SDS011;57318;56.232;43.944;2023-04-08T02:15:10;4.53;;;2.35;;
69979;SDS011;57318;56.232;43.944;2023-04-08T02:17:42;5.28;;;2.53;;
69979;SDS011;57318;56.232;43.944;2023-04-08T02:20:21;6.10;;;2.55;;
69979;SDS011;57318;56.232;43.944;2023-04-08T02:25:26;6.57;;;2.80;;
69979;SDS011;57318;56.232;43.944;2023-04-08T02:27:54;4.22;;;2.80;;
69979;SDS011;57318;56.232;43.944;2023-04-08T02:32:47;7.65;;;3.15;;
69979;SDS011;57318;56.232;43.944;2023-04-08T02:35:14;4.40;;;2.40;;
69979;SDS011;57318;56.232;43.944;2023-04-08T02:37:40;4.60;;;2.80;;
69979;SDS011;57318;56.232;43.944;2023-04-08T02:40:48;4.10;;;2.50;;
69979;SDS011;57318;56.232;43.944;2023-04-08T02:42:57;5.15;;;2.53;;
69979;SDS011;57318;56.232;43.944;2023-04-08T02:47:54;4.07;;;2.33;;
69979;SDS011;57318;56.232;43.944;2023-04-08T02:50:19;7.50;;;2.70;;
69979;SDS011;57318;56.232;43.944;2023-04-08T02:52:45;5.13;;;3.00;;
69979;SDS011;57318;56.232;43.944;2023-04-08T02:55:11;5.90;;;2.63;;
69979;SDS011;57318;56.232;43.944;2023-04-08T02:57:38;6.32;;;2.90;;
69979;SDS011;57318;56.232;43.944;2023-04-08T03:00:05;6.95;;;2.50;;
69979;SDS011;57318;56.232;43.944;2023-04-08T03:02:31;6.05;;;2.67;;
69979;SDS011;57318;56.232;43.944;2023-04-08T03:04:57;5.65;;;2.47;;
69979;SDS011;57318;56.232;43.944;2023-04-08T03:07:23;5.93;;;3.22;;
69979;SDS011;57318;56.232;43.944;2023-04-08T03:09:49;7.25;;;2.65;;
69979;SDS011;57318;56.232;43.944;2023-04-08T03:12:15;3.67;;;2.40;;
69979;SDS011;57318;56.232;43.944;2023-04-08T03:14:40;8.17;;;2.70;;
69979;SDS011;57318;56.232;43.944;2023-04-08T03:17:06;6.03;;;2.70;;
69979;SDS011;57318;56.232;43.944;2023-04-08T03:19:31;10.03;;;3.00;;
69979;SDS011;57318;56.232;43.944;2023-04-08T03:21:57;9.30;;;3.20;;
69979;SDS011;57318;56.232;43.944;2023-04-08T03:24:23;7.57;;;2.67;;
69979;SDS011;57318;56.232;43.944;2023-04-08T03:26:48;10.93;;;2.73;;
69979;SDS011;57318;56.232;43.944;2023-04-08T03:29:14;7.90;;;2.10;;
69979;SDS011;57318;56.232;43.944;2023-04-08T03:31:40;6.80;;;3.03;;
69979;SDS011;57318;56.232;43.944;2023-04-08T03:34:05;10.60;;;2.60;;
69979;SDS011;57318;56.232;43.944;2023-04-08T03:36:31;6.13;;;2.73;;
69979;SDS011;57318;56.232;43.944;2023-04-08T03:38:57;14.00;;;2.87;;
69979;SDS011;57318;56.232;43.944;2023-04-08T03:41:22;4.77;;;2.60;;
69979;SDS011;57318;56.232;43.944;2023-04-08T03:43:48;5.47;;;2.90;;
69979;SDS011;57318;56.232;43.944;2023-04-08T03:46:14;7.27;;;2.93;;
69979;SDS011;57318;56.232;43.944;2023-04-08T03:48:39;6.33;;;2.73;;
69979;SDS011;57318;56.232;43.944;2023-04-08T03:51:05;6.03;;;2.80;;
69979;SDS011;57318;56.232;43.944;2023-04-08T03:53:31;9.77;;;3.30;;
69979;SDS011;57318;56.232;43.944;2023-04-08T03:55:56;7.17;;;2.70;;
69979;SDS011;57318;56.232;43.944;2023-04-08T03:58:24;10.43;;;3.03;;
69979;SDS011;57318;56.232;43.944;2023-04-08T04:00:50;5.00;;;2.42;;
69979;SDS011;57318;56.232;43.944;2023-04-08T04:03:15;9.90;;;2.90;;
69979;SDS011;57318;56.232;43.944;2023-04-08T04:05:41;6.13;;;3.23;;
69979;SDS011;57318;56.232;43.944;2023-04-08T04:08:07;7.57;;;3.20;;
69979;SDS011;57318;56.232;43.944;2023-04-08T04:10:33;5.35;;;2.53;;
69979;SDS011;57318;56.232;43.944;2023-04-08T04:13:00;10.93;;;3.00;;
69979;SDS011;57318;56.232;43.944;2023-04-08T04:15:26;11.93;;;3.20;;
69979;SDS011;57318;56.232;43.944;2023-04-08T04:17:51;6.22;;;3.05;;
69979;SDS011;57318;56.232;43.944;2023-04-08T04:20:17;5.97;;;2.77;;
69979;SDS011;57318;56.232;43.944;2023-04-08T04:22:44;9.63;;;3.22;;
69979;SDS011;57318;56.232;43.944;2023-04-08T04:25:09;50.90;;;5.10;;
69979;SDS011;57318;56.232;43.944;2023-04-08T04:27:35;7.00;;;2.97;;
69979;SDS011;57318;56.232;43.944;2023-04-08T04:30:01;7.93;;;3.43;;
69979;SDS011;57318;56.232;43.944;2023-04-08T04:32:29;13.70;;;3.40;;
69979;SDS011;57318;56.232;43.944;2023-04-08T04:34:54;6.50;;;3.57;;
69979;SDS011;57318;56.232;43.944;2023-04-08T04:37:20;9.23;;;3.20;;
69979;SDS011;57318;56.232;43.944;2023-04-08T04:39:45;5.17;;;3.10;;
69979;SDS011;57318;56.232;43.944;2023-04-08T04:42:11;5.07;;;2.83;;
69979;SDS011;57318;56.232;43.944;2023-04-08T04:44:37;5.80;;;2.87;;
69979;SDS011;57318;56.232;43.944;2023-04-08T04:47:02;9.03;;;2.80;;
69979;SDS011;57318;56.232;43.944;2023-04-08T04:49:28;9.80;;;3.00;;
69979;SDS011;57318;56.232;43.944;2023-04-08T04:51:54;5.33;;;2.67;;
69979;SDS011;57318;56.232;43.944;2023-04-08T04:54:20;7.30;;;2.77;;
69979;SDS011;57318;56.232;43.944;2023-04-08T04:56:45;4.60;;;2.80;;
69979;SDS011;57318;56.232;43.944;2023-04-08T04:59:11;5.10;;;2.60;;
69979;SDS011;57318;56.232;43.944;2023-04-08T05:01:37;5.37;;;2.80;;
69979;SDS011;57318;56.232;43.944;2023-04-08T05:04:05;6.15;;;2.88;;
69979;SDS011;57318;56.232;43.944;2023-04-08T05:06:31;11.65;;;3.20;;
69979;SDS011;57318;56.232;43.944;2023-04-08T05:08:57;10.45;;;2.85;;
69979;SDS011;57318;56.232;43.944;2023-04-08T05:11:23;7.77;;;2.70;;
69979;SDS011;57318;56.232;43.944;2023-04-08T05:13:48;13.10;;;3.10;;
69979;SDS011;57318;56.232;43.944;2023-04-08T05:16:14;7.00;;;2.50;;
69979;SDS011;57318;56.232;43.944;2023-04-08T05:18:40;6.20;;;2.42;;
69979;SDS011;57318;56.232;43.944;2023-04-08T05:21:06;6.82;;;2.75;;
69979;SDS011;57318;56.232;43.944;2023-04-08T05:23:33;9.80;;;2.90;;
69979;SDS011;57318;56.232;43.944;2023-04-08T05:25:59;9.40;;;2.92;;
69979;SDS011;57318;56.232;43.944;2023-04-08T05:28:25;4.53;;;2.38;;
69979;SDS011;57318;56.232;43.944;2023-04-08T05:30:51;6.80;;;2.80;;
69979;SDS011;57318;56.232;43.944;2023-04-08T05:33:17;8.70;;;2.60;;
69979;SDS011;57318;56.232;43.944;2023-04-08T05:35:43;8.73;;;3.07;;
69979;SDS011;57318;56.232;43.944;2023-04-08T05:38:09;4.63;;;2.33;;
69979;SDS011;57318;56.232;43.944;2023-04-08T05:40:35;7.50;;;2.97;;
69979;SDS011;57318;56.232;43.944;2023-04-08T05:43:01;11.60;;;2.90;;
69979;SDS011;57318;56.232;43.944;2023-04-08T05:45:27;7.93;;;3.03;;
69979;SDS011;57318;56.232;43.944;2023-04-08T05:47:53;6.75;;;2.88;;
69979;SDS011;57318;56.232;43.944;2023-04-08T05:50:19;7.90;;;3.03;;
69979;SDS011;57318;56.232;43.944;2023-04-08T05:52:48;5.65;;;2.97;;
69979;SDS011;57318;56.232;43.944;2023-04-08T05:55:13;7.57;;;3.23;;
69979;SDS011;57318;56.232;43.944;2023-04-08T05:57:39;7.57;;;2.90;;
69979;SDS011;57318;56.232;43.944;2023-04-08T06:00:06;6.68;;;2.70;;
69979;SDS011;57318;56.232;43.944;2023-04-08T06:02:33;11.57;;;3.25;;
69979;SDS011;57318;56.232;43.944;2023-04-08T06:05:00;8.05;;;3.28;;
69979;SDS011;57318;56.232;43.944;2023-04-08T06:07:26;5.95;;;2.58;;
69979;SDS011;57318;56.232;43.944;2023-04-08T06:09:52;8.33;;;3.10;;
69979;SDS011;57318;56.232;43.944;2023-04-08T06:12:18;10.23;;;3.40;;
69979;SDS011;57318;56.232;43.944;2023-04-08T06:14:43;8.17;;;4.13;;
69979;SDS011;57318;56.232;43.944;2023-04-08T06:17:09;20.93;;;4.83;;
69979;SDS011;57318;56.232;43.944;2023-04-08T06:19:35;7.80;;;3.60;;
69979;SDS011;57318;56.232;43.944;2023-04-08T06:22:00;7.33;;;3.80;;
69979;SDS011;57318;56.232;43.944;2023-04-08T06:24:26;7.97;;;4.03;;
69979;SDS011;57318;56.232;43.944;2023-04-08T06:26:53;9.35;;;3.20;;
69979;SDS011;57318;56.232;43.944;2023-04-08T06:29:20;5.93;;;3.28;;
69979;SDS011;57318;56.232;43.944;2023-04-08T06:31:47;5.40;;;2.90;;
69979;SDS011;57318;56.232;43.944;2023-04-08T06:34:13;9.98;;;3.55;;
69979;SDS011;57318;56.232;43.944;2023-04-08T06:36:39;10.40;;;3.00;;
69979;SDS011;57318;56.232;43.944;2023-04-08T06:39:04;13.47;;;3.77;;
69979;SDS011;57318;56.232;43.944;2023-04-08T06:41:30;22.77;;;3.40;;
69979;SDS011;57318;56.232;43.944;2023-04-08T06:43:56;8.77;;;3.23;;
69979;SDS011;57318;56.232;43.944;2023-04-08T06:46:22;6.20;;;2.93;;
69979;SDS011;57318;56.232;43.944;2023-04-08T06:48:47;15.23;;;3.50;;
69979;SDS011;57318;56.232;43.944;2023-04-08T06:51:13;7.73;;;2.97;;
69979;SDS011;57318;56.232;43.944;2023-04-08T06:53:39;6.50;;;3.13;;
69979;SDS011;57318;56.232;43.944;2023-04-08T06:56:04;9.20;;;3.40;;
69979;SDS011;57318;56.232;43.944;2023-04-08T06:58:30;7.70;;;3.15;;
69979;SDS011;57318;56.232;43.944;2023-04-08T07:00:56;101.40;;;7.83;;
69979;SDS011;57318;56.232;43.944;2023-04-08T07:03:23;13.07;;;3.05;;
69979;SDS011;57318;56.232;43.944;2023-04-08T07:05:49;10.70;;;3.53;;
69979;SDS011;57318;56.232;43.944;2023-04-08T07:08:15;12.77;;;3.50;;
69979;SDS011;57318;56.232;43.944;2023-04-08T07:10:41;12.40;;;4.40;;
69979;SDS011;57318;56.232;43.944;2023-04-08T07:13:06;6.95;;;3.47;;
69979;SDS011;57318;56.232;43.944;2023-04-08T07:15:32;11.10;;;3.40;;
69979;SDS011;57318;56.232;43.944;2023-04-08T07:17:58;7.68;;;3.28;;
69979;SDS011;57318;56.232;43.944;2023-04-08T07:22:50;6.30;;;3.22;;
69979;SDS011;57318;56.232;43.944;2023-04-08T07:27:42;10.27;;;3.72;;
69979;SDS011;57318;56.232;43.944;2023-04-08T07:30:08;6.30;;;3.22;;
69979;SDS011;57318;56.232;43.944;2023-04-08T07:32:34;10.52;;;3.42;;
69979;SDS011;57318;56.232;43.944;2023-04-08T07:35:00;36.75;;;6.30;;
69979;SDS011;57318;56.232;43.944;2023-04-08T07:37:28;7.18;;;3.35;;
69979;SDS011;57318;56.232;43.944;2023-04-08T07:39:53;8.52;;;3.08;;
69979;SDS011;57318;56.232;43.944;2023-04-08T07:42:19;7.38;;;3.47;;
69979;SDS011;57318;56.232;43.944;2023-04-08T07:44:46;5.90;;;3.13;;
69979;SDS011;57318;56.232;43.944;2023-04-08T07:47:11;10.95;;;3.15;;
69979;SDS011;57318;56.232;43.944;2023-04-08T07:49:37;10.88;;;3.40;;
69979;SDS011;57318;56.232;43.944;2023-04-08T07:52:03;8.13;;;3.35;;
69979;SDS011;57318;56.232;43.944;2023-04-08T07:54:30;12.32;;;3.42;;
69979;SDS011;57318;56.232;43.944;2023-04-08T07:56:58;8.65;;;3.10;;
69979;SDS011;57318;56.232;43.944;2023-04-08T08:01:50;6.53;;;3.10;;
69979;SDS011;57318;56.232;43.944;2023-04-08T08:04:19;10.63;;;3.30;;
69979;SDS011;57318;56.232;43.944;2023-04-08T08:06:45;10.45;;;3.40;;
69979;SDS011;57318;56.232;43.944;2023-04-08T08:09:11;6.97;;;4.10;;
69979;SDS011;57318;56.232;43.944;2023-04-08T08:11:37;14.10;;;4.32;;
69979;SDS011;57318;56.232;43.944;2023-04-08T08:14:03;4.18;;;3.33;;
69979;SDS011;57318;56.232;43.944;2023-04-08T08:16:29;8.73;;;3.75;;
69979;SDS011;57318;56.232;43.944;2023-04-08T08:18:59;13.48;;;3.45;;
69979;SDS011;57318;56.232;43.944;2023-04-08T08:21:24;5.20;;;2.85;;
69979;SDS011;57318;56.232;43.944;2023-04-08T08:23:51;8.98;;;3.20;;
69979;SDS011;57318;56.232;43.944;2023-04-08T08:26:17;6.57;;;2.92;;
69979;SDS011;57318;56.232;43.944;2023-04-08T08:28:43;9.57;;;2.80;;
69979;SDS011;57318;56.232;43.944;2023-04-08T08:31:08;12.30;;;3.22;;
69979;SDS011;57318;56.232;43.944;2023-04-08T08:33:34;24.00;;;3.63;;
69979;SDS011;57318;56.232;43.944;2023-04-08T08:38:26;9.73;;;3.05;;
69979;SDS011;57318;56.232;43.944;2023-04-08T08:43:25;4.93;;;2.90;;
69979;SDS011;57318;56.232;43.944;2023-04-08T08:45:52;9.60;;;3.85;;
69979;SDS011;57318;56.232;43.944;2023-04-08T08:48:18;8.00;;;3.85;;
69979;SDS011;57318;56.232;43.944;2023-04-08T08:50:45;7.35;;;3.28;;
69979;SDS011;57318;56.232;43.944;2023-04-08T08:55:36;12.32;;;5.15;;
69979;SDS011;57318;56.232;43.944;2023-04-08T08:58:04;14.60;;;4.47;;
69979;SDS011;57318;56.232;43.944;2023-04-08T09:00:38;7.05;;;3.80;;
69979;SDS011;57318;56.232;43.944;2023-04-08T09:05:49;17.02;;;4.20;;
69979;SDS011;57318;56.232;43.944;2023-04-08T09:10:50;7.65;;;3.50;;
69979;SDS011;57318;56.232;43.944;2023-04-08T09:13:17;11.30;;;3.83;;
69979;SDS011;57318;56.232;43.944;2023-04-08T09:18:30;6.70;;;2.70;;
69979;SDS011;57318;56.232;43.944;2023-04-08T09:21:01;21.15;;;3.97;;
69979;SDS011;57318;56.232;43.944;2023-04-08T09:26:07;7.43;;;3.30;;
69979;SDS011;57318;56.232;43.944;2023-04-08T09:28:36;9.82;;;3.88;;
69979;SDS011;57318;56.232;43.944;2023-04-08T09:34:11;12.38;;;3.53;;
69979;SDS011;57318;56.232;43.944;2023-04-08T09:36:39;13.25;;;3.60;;
69979;SDS011;57318;56.232;43.944;2023-04-08T09:41:35;16.90;;;3.97;;
69979;SDS011;57318;56.232;43.944;2023-04-08T09:44:02;21.77;;;4.10;;
69979;SDS011;57318;56.232;43.944;2023-04-08T09:49:11;8.88;;;3.60;;
69979;SDS011;57318;56.232;43.944;2023-04-08T09:51:49;20.92;;;4.68;;
69979;SDS011;57318;56.232;43.944;2023-04-08T09:54:26;6.78;;;4.38;;
69979;SDS011;57318;56.232;43.944;2023-04-08T09:57:00;13.40;;;4.70;;
69979;SDS011;57318;56.232;43.944;2023-04-08T09:59:33;11.82;;;5.43;;
69979;SDS011;57318;56.232;43.944;2023-04-08T10:02:04;12.27;;;3.90;;
69979;SDS011;57318;56.232;43.944;2023-04-08T10:04:37;6.70;;;3.85;;
69979;SDS011;57318;56.232;43.944;2023-04-08T10:07:06;11.35;;;4.80;;
69979;SDS011;57318;56.232;43.944;2023-04-08T10:09:33;13.13;;;4.90;;
69979;SDS011;57318;56.232;43.944;2023-04-08T10:12:00;7.40;;;4.57;;
69979;SDS011;57318;56.232;43.944;2023-04-08T10:14:27;19.23;;;5.18;;
69979;SDS011;57318;56.232;43.944;2023-04-08T10:19:38;4.97;;;3.72;;
69979;SDS011;57318;56.232;43.944;2023-04-08T10:22:49;11.77;;;4.20;;
69979;SDS011;57318;56.232;43.944;2023-04-08T10:27:40;10.30;;;4.57;;
69979;SDS011;57318;56.232;43.944;2023-04-08T10:32:50;9.25;;;4.10;;
69979;SDS011;57318;56.232;43.944;2023-04-08T10:35:16;13.57;;;4.40;;
69979;SDS011;57318;56.232;43.944;2023-04-08T10:37:42;7.07;;;4.15;;
69979;SDS011;57318;56.232;43.944;2023-04-08T10:40:18;7.22;;;5.13;;
69979;SDS011;57318;56.232;43.944;2023-04-08T10:42:44;25.58;;;4.78;;
69979;SDS011;57318;56.232;43.944;2023-04-08T10:47:41;6.70;;;4.13;;
69979;SDS011;57318;56.232;43.944;2023-04-08T10:52:49;11.63;;;4.15;;
69979;SDS011;57318;56.232;43.944;2023-04-08T10:55:21;11.27;;;4.60;;
69979;SDS011;57318;56.232;43.944;2023-04-08T10:57:48;7.80;;;4.53;;
69979;SDS011;57318;56.232;43.944;2023-04-08T11:00:18;9.43;;;4.43;;
69979;SDS011;57318;56.232;43.944;2023-04-08T11:03:00;12.75;;;5.00;;
69979;SDS011;57318;56.232;43.944;2023-04-08T11:05:27;10.80;;;5.68;;
69979;SDS011;57318;56.232;43.944;2023-04-08T11:07:53;9.07;;;5.13;;
69979;SDS011;57318;56.232;43.944;2023-04-08T11:10:19;26.55;;;5.07;;
69979;SDS011;57318;56.232;43.944;2023-04-08T11:12:45;10.90;;;4.97;;
69979;SDS011;57318;56.232;43.944;2023-04-08T11:15:12;9.48;;;4.68;;
69979;SDS011;57318;56.232;43.944;2023-04-08T11:17:39;15.23;;;4.43;;
69979;SDS011;57318;56.232;43.944;2023-04-08T11:20:05;9.32;;;4.72;;
69979;SDS011;57318;56.232;43.944;2023-04-08T11:22:32;7.35;;;4.78;;
69979;SDS011;57318;56.232;43.944;2023-04-08T11:24:58;9.40;;;4.50;;
69979;SDS011;57318;56.232;43.944;2023-04-08T11:27:25;8.02;;;4.65;;
69979;SDS011;57318;56.232;43.944;2023-04-08T11:29:54;6.97;;;4.22;;
69979;SDS011;57318;56.232;43.944;2023-04-08T11:32:21;7.30;;;4.55;;
69979;SDS011;57318;56.232;43.944;2023-04-08T11:34:50;15.70;;;5.15;;
69979;SDS011;57318;56.232;43.944;2023-04-08T11:37:17;8.00;;;4.50;;
69979;SDS011;57318;56.232;43.944;2023-04-08T11:42:09;9.30;;;4.65;;
69979;SDS011;57318;56.232;43.944;2023-04-08T11:44:54;14.32;;;5.57;;
69979;SDS011;57318;56.232;43.944;2023-04-08T11:47:20;8.35;;;4.68;;
69979;SDS011;57318;56.232;43.944;2023-04-08T11:52:12;13.90;;;5.13;;
69979;SDS011;57318;56.232;43.944;2023-04-08T11:57:06;14.60;;;5.20;;
69979;SDS011;57318;56.232;43.944;2023-04-08T11:59:36;17.15;;;4.30;;
69979;SDS011;57318;56.232;43.944;2023-04-08T12:04:27;11.07;;;5.20;;
69979;SDS011;57318;56.232;43.944;2023-04-08T12:06:54;13.95;;;4.20;;
69979;SDS011;57318;56.232;43.944;2023-04-08T12:09:20;15.40;;;5.60;;
69979;SDS011;57318;56.232;43.944;2023-04-08T12:14:11;45.20;;;6.57;;
69979;SDS011;57318;56.232;43.944;2023-04-08T12:19:02;18.13;;;4.72;;
69979;SDS011;57318;56.232;43.944;2023-04-08T12:21:28;10.07;;;4.80;;
69979;SDS011;57318;56.232;43.944;2023-04-08T12:23:54;32.22;;;6.05;;
69979;SDS011;57318;56.232;43.944;2023-04-08T12:26:20;10.13;;;5.70;;
69979;SDS011;57318;56.232;43.944;2023-04-08T12:28:45;10.52;;;3.97;;
69979;SDS011;57318;56.232;43.944;2023-04-08T12:31:11;9.30;;;4.80;;
69979;SDS011;57318;56.232;43.944;2023-04-08T12:33:37;15.23;;;4.63;;
69979;SDS011;57318;56.232;43.944;2023-04-08T12:36:02;7.22;;;4.00;;
69979;SDS011;57318;56.232;43.944;2023-04-08T12:38:28;11.35;;;4.35;;
69979;SDS011;57318;56.232;43.944;2023-04-08T12:40:54;4.55;;;3.83;;
69979;SDS011;57318;56.232;43.944;2023-04-08T12:45:46;7.53;;;3.60;;
69979;SDS011;57318;56.232;43.944;2023-04-08T12:48:13;8.02;;;4.60;;
69979;SDS011;57318;56.232;43.944;2023-04-08T12:50:38;7.80;;;4.03;;
69979;SDS011;57318;56.232;43.944;2023-04-08T12:53:04;7.25;;;3.75;;
69979;SDS011;57318;56.232;43.944;2023-04-08T12:55:31;27.25;;;4.95;;
69979;SDS011;57318;56.232;43.944;2023-04-08T12:57:56;10.30;;;3.95;;
69979;SDS011;57318;56.232;43.944;2023-04-08T13:00:22;14.63;;;4.30;;
69979;SDS011;57318;56.232;43.944;2023-04-08T13:02:48;9.10;;;4.10;;
69979;SDS011;57318;56.232;43.944;2023-04-08T13:05:13;9.70;;;3.95;;
69979;SDS011;57318;56.232;43.944;2023-04-08T13:07:39;9.63;;;3.92;;
69979;SDS011;57318;56.232;43.944;2023-04-08T13:10:06;8.95;;;3.90;;
69979;SDS011;57318;56.232;43.944;2023-04-08T13:12:32;7.78;;;3.42;;
69979;SDS011;57318;56.232;43.944;2023-04-08T13:14:58;11.23;;;4.82;;
69979;SDS011;57318;56.232;43.944;2023-04-08T13:19:49;7.53;;;3.42;;
69979;SDS011;57318;56.232;43.944;2023-04-08T13:22:15;11.05;;;4.00;;
69979;SDS011;57318;56.232;43.944;2023-04-08T13:24:41;8.10;;;4.07;;
69979;SDS011;57318;56.232;43.944;2023-04-08T13:27:07;12.57;;;6.57;;
69979;SDS011;57318;56.232;43.944;2023-04-08T13:29:32;8.63;;;4.55;;
69979;SDS011;57318;56.232;43.944;2023-04-08T13:31:58;14.57;;;6.57;;
69979;SDS011;57318;56.232;43.944;2023-04-08T13:34:25;13.48;;;5.00;;
69979;SDS011;57318;56.232;43.944;2023-04-08T13:36:51;10.18;;;4.85;;
69979;SDS011;57318;56.232;43.944;2023-04-08T13:39:17;9.73;;;4.45;;
69979;SDS011;57318;56.232;43.944;2023-04-08T13:41:42;6.80;;;3.85;;
69979;SDS011;57318;56.232;43.944;2023-04-08T13:44:08;11.73;;;4.82;;
69979;SDS011;57318;56.232;43.944;2023-04-08T13:46:34;31.25;;;5.75;;
69979;SDS011;57318;56.232;43.944;2023-04-08T13:49:00;20.80;;;5.40;;
69979;SDS011;57318;56.232;43.944;2023-04-08T13:51:27;7.15;;;5.05;;
69979;SDS011;57318;56.232;43.944;2023-04-08T13:53:53;8.40;;;3.72;;
69979;SDS011;57318;56.232;43.944;2023-04-08T13:56:19;11.52;;;4.63;;
69979;SDS011;57318;56.232;43.944;2023-04-08T13:58:45;30.05;;;5.13;;
69979;SDS011;57318;56.232;43.944;2023-04-08T14:01:11;12.05;;;5.05;;
69979;SDS011;57318;56.232;43.944;2023-04-08T14:03:37;13.02;;;5.38;;
69979;SDS011;57318;56.232;43.944;2023-04-08T14:06:03;17.38;;;5.43;;
69979;SDS011;57318;56.232;43.944;2023-04-08T14:08:29;11.40;;;5.03;;
69979;SDS011;57318;56.232;43.944;2023-04-08T14:10:55;11.80;;;4.90;;
69979;SDS011;57318;56.232;43.944;2023-04-08T14:13:21;16.92;;;5.00;;
69979;SDS011;57318;56.232;43.944;2023-04-08T14:15:47;15.85;;;4.15;;
69979;SDS011;57318;56.232;43.944;2023-04-08T14:18:14;9.68;;;3.83;;
69979;SDS011;57318;56.232;43.944;2023-04-08T14:20:43;13.20;;;4.35;;
69979;SDS011;57318;56.232;43.944;2023-04-08T14:23:08;7.22;;;3.90;;
69979;SDS011;57318;56.232;43.944;2023-04-08T14:25:35;10.18;;;4.68;;
69979;SDS011;57318;56.232;43.944;2023-04-08T14:28:00;16.40;;;4.30;;
69979;SDS011;57318;56.232;43.944;2023-04-08T14:30:26;12.10;;;4.73;;
69979;SDS011;57318;56.232;43.944;2023-04-08T14:32:52;8.63;;;4.60;;
69979;SDS011;57318;56.232;43.944;2023-04-08T14:35:18;9.95;;;4.80;;
69979;SDS011;57318;56.232;43.944;2023-04-08T14:37:44;12.77;;;4.68;;
69979;SDS011;57318;56.232;43.944;2023-04-08T14:40:11;13.63;;;5.07;;
69979;SDS011;57318;56.232;43.944;2023-04-08T14:42:38;11.93;;;6.43;;
69979;SDS011;57318;56.232;43.944;2023-04-08T14:45:04;9.80;;;5.03;;
69979;SDS011;57318;56.232;43.944;2023-04-08T14:47:30;12.93;;;5.35;;
69979;SDS011;57318;56.232;43.944;2023-04-08T14:49:55;14.23;;;6.20;;
69979;SDS011;57318;56.232;43.944;2023-04-08T14:52:21;10.17;;;5.17;;
69979;SDS011;57318;56.232;43.944;2023-04-08T14:54:47;12.60;;;5.00;;
69979;SDS011;57318;56.232;43.944;2023-04-08T14:57:13;13.48;;;5.07;;
69979;SDS011;57318;56.232;43.944;2023-04-08T14:59:40;9.73;;;5.40;;
69979;SDS011;57318;56.232;43.944;2023-04-08T15:02:06;14.97;;;6.13;;
69979;SDS011;57318;56.232;43.944;2023-04-08T15:04:32;23.67;;;8.70;;
69979;SDS011;57318;56.232;43.944;2023-04-08T15:06:57;19.10;;;9.37;;
69979;SDS011;57318;56.232;43.944;2023-04-08T15:09:23;11.40;;;6.43;;
69979;SDS011;57318;56.232;43.944;2023-04-08T15:11:49;12.57;;;5.70;;
69979;SDS011;57318;56.232;43.944;2023-04-08T15:14:14;14.90;;;6.03;;
69979;SDS011;57318;56.232;43.944;2023-04-08T15:16:40;17.10;;;6.30;;
69979;SDS011;57318;56.232;43.944;2023-04-08T15:19:05;17.57;;;7.13;;
69979;SDS011;57318;56.232;43.944;2023-04-08T15:21:31;20.93;;;7.00;;
69979;SDS011;57318;56.232;43.944;2023-04-08T15:23:57;29.20;;;8.77;;
69979;SDS011;57318;56.232;43.944;2023-04-08T15:26:22;21.00;;;7.87;;
69979;SDS011;57318;56.232;43.944;2023-04-08T15:28:48;24.30;;;7.67;;
69979;SDS011;57318;56.232;43.944;2023-04-08T15:31:16;14.35;;;6.18;;
69979;SDS011;57318;56.232;43.944;2023-04-08T15:33:41;19.40;;;7.03;;
69979;SDS011;57318;56.232;43.944;2023-04-08T15:36:09;27.45;;;8.20;;
69979;SDS011;57318;56.232;43.944;2023-04-08T15:38:36;15.35;;;7.38;;
69979;SDS011;57318;56.232;43.944;2023-04-08T15:41:02;22.35;;;10.38;;
69979;SDS011;57318;56.232;43.944;2023-04-08T15:43:28;25.63;;;10.33;;
69979;SDS011;57318;56.232;43.944;2023-04-08T15:45:54;17.90;;;9.50;;